sensor_id;sensor_type;location;lat;lon;timestamp;P1;durP1;ratioP1;P2;durP2;ratioP2
52248;SDS011;38541;48.130;8.378;2022-11-24T00:00:51;1.38;;;0.70;;
52248;SDS011;38541;48.130;8.378;2022-11-24T00:03:18;0.90;;;0.80;;
52248;SDS011;38541;48.130;8.378;2022-11-24T00:05:45;1.13;;;0.85;;
52248;SDS011;38541;48.130;8.378;2022-11-24T00:08:11;0.80;;;0.80;;
52248;SDS011;38541;48.130;8.378;2022-11-24T00:10:38;1.20;;;0.98;;
52248;SDS011;38541;48.130;8.378;2022-11-24T00:13:04;0.60;;;0.60;;
52248;SDS011;38541;48.130;8.378;2022-11-24T00:15:31;1.58;;;0.98;;
52248;SDS011;38541;48.130;8.378;2022-11-24T00:17:57;0.90;;;0.52;;
52248;SDS011;38541;48.130;8.378;2022-11-24T00:20:24;0.80;;;0.80;;
52248;SDS011;38541;48.130;8.378;2022-11-24T00:22:50;1.40;;;0.80;;
52248;SDS011;38541;48.130;8.378;2022-11-24T00:25:17;0.63;;;0.55;;
52248;SDS011;38541;48.130;8.378;2022-11-24T00:27:43;0.75;;;0.70;;
52248;SDS011;38541;48.130;8.378;2022-11-24T00:30:10;3.03;;;0.90;;
52248;SDS011;38541;48.130;8.378;2022-11-24T00:32:36;1.23;;;0.85;;
52248;SDS011;38541;48.130;8.378;2022-11-24T00:35:03;2.30;;;0.88;;
52248;SDS011;38541;48.130;8.378;2022-11-24T00:37:30;0.98;;;0.88;;
52248;SDS011;38541;48.130;8.378;2022-11-24T00:39:56;2.15;;;1.13;;
52248;SDS011;38541;48.130;8.378;2022-11-24T00:42:23;1.20;;;0.88;;
52248;SDS011;38541;48.130;8.378;2022-11-24T00:44:49;0.90;;;0.80;;
52248;SDS011;38541;48.130;8.378;2022-11-24T00:47:16;1.75;;;0.75;;
52248;SDS011;38541;48.130;8.378;2022-11-24T00:49:42;0.73;;;0.68;;
52248;SDS011;38541;48.130;8.378;2022-11-24T00:52:09;1.30;;;0.70;;
52248;SDS011;38541;48.130;8.378;2022-11-24T00:54:35;0.85;;;0.75;;
52248;SDS011;38541;48.130;8.378;2022-11-24T00:57:02;1.17;;;0.77;;
52248;SDS011;38541;48.130;8.378;2022-11-24T00:59:28;2.00;;;0.80;;
52248;SDS011;38541;48.130;8.378;2022-11-24T01:01:55;3.42;;;0.88;;
52248;SDS011;38541;48.130;8.378;2022-11-24T01:04:21;1.77;;;0.80;;
52248;SDS011;38541;48.130;8.378;2022-11-24T01:06:48;1.95;;;1.23;;
52248;SDS011;38541;48.130;8.378;2022-11-24T01:09:14;1.38;;;0.80;;
52248;SDS011;38541;48.130;8.378;2022-11-24T01:11:40;2.10;;;1.00;;
52248;SDS011;38541;48.130;8.378;2022-11-24T01:14:25;1.27;;;1.17;;
52248;SDS011;38541;48.130;8.378;2022-11-24T01:16:53;1.45;;;1.13;;
52248;SDS011;38541;48.130;8.378;2022-11-24T01:19:20;1.27;;;1.17;;
52248;SDS011;38541;48.130;8.378;2022-11-24T01:21:46;2.38;;;1.40;;
52248;SDS011;38541;48.130;8.378;2022-11-24T01:24:13;5.18;;;1.55;;
52248;SDS011;38541;48.130;8.378;2022-11-24T01:26:40;2.38;;;1.20;;
52248;SDS011;38541;48.130;8.378;2022-11-24T01:29:08;4.07;;;1.35;;
52248;SDS011;38541;48.130;8.378;2022-11-24T01:31:36;1.38;;;1.20;;
52248;SDS011;38541;48.130;8.378;2022-11-24T01:34:02;1.38;;;1.10;;
52248;SDS011;38541;48.130;8.378;2022-11-24T01:36:29;6.78;;;1.50;;
52248;SDS011;38541;48.130;8.378;2022-11-24T01:38:55;2.00;;;1.30;;
52248;SDS011;38541;48.130;8.378;2022-11-24T01:41:23;3.10;;;1.50;;
52248;SDS011;38541;48.130;8.378;2022-11-24T01:43:51;4.28;;;1.42;;
52248;SDS011;38541;48.130;8.378;2022-11-24T01:48:56;2.22;;;1.38;;
52248;SDS011;38541;48.130;8.378;2022-11-24T01:54:37;2.22;;;1.30;;
52248;SDS011;38541;48.130;8.378;2022-11-24T01:57:14;1.10;;;0.95;;
52248;SDS011;38541;48.130;8.378;2022-11-24T01:59:50;2.80;;;1.50;;
52248;SDS011;38541;48.130;8.378;2022-11-24T02:02:23;1.98;;;1.70;;
52248;SDS011;38541;48.130;8.378;2022-11-24T02:04:54;2.05;;;1.55;;
52248;SDS011;38541;48.130;8.378;2022-11-24T02:07:23;2.30;;;1.70;;
52248;SDS011;38541;48.130;8.378;2022-11-24T02:09:51;1.63;;;1.00;;
52248;SDS011;38541;48.130;8.378;2022-11-24T02:12:21;3.55;;;1.63;;
52248;SDS011;38541;48.130;8.378;2022-11-24T02:14:49;1.30;;;1.20;;
52248;SDS011;38541;48.130;8.378;2022-11-24T02:17:17;3.92;;;1.40;;
52248;SDS011;38541;48.130;8.378;2022-11-24T02:19:53;2.80;;;1.17;;
52248;SDS011;38541;48.130;8.378;2022-11-24T02:22:33;4.45;;;1.48;;
52248;SDS011;38541;48.130;8.378;2022-11-24T02:25:34;2.45;;;1.20;;
52248;SDS011;38541;48.130;8.378;2022-11-24T02:28:11;5.18;;;1.77;;
52248;SDS011;38541;48.130;8.378;2022-11-24T02:30:41;5.65;;;1.58;;
52248;SDS011;38541;48.130;8.378;2022-11-24T02:33:08;4.82;;;1.73;;
52248;SDS011;38541;48.130;8.378;2022-11-24T02:39:42;5.70;;;1.60;;
52248;SDS011;38541;48.130;8.378;2022-11-24T02:42:09;3.10;;;1.75;;
52248;SDS011;38541;48.130;8.378;2022-11-24T02:44:40;3.05;;;1.52;;
52248;SDS011;38541;48.130;8.378;2022-11-24T02:47:10;7.60;;;1.70;;
52248;SDS011;38541;48.130;8.378;2022-11-24T02:49:38;4.85;;;1.70;;
52248;SDS011;38541;48.130;8.378;2022-11-24T02:52:04;3.90;;;1.73;;
52248;SDS011;38541;48.130;8.378;2022-11-24T02:54:31;2.60;;;1.40;;
52248;SDS011;38541;48.130;8.378;2022-11-24T02:56:58;4.20;;;2.20;;
52248;SDS011;38541;48.130;8.378;2022-11-24T02:59:25;4.28;;;1.65;;
52248;SDS011;38541;48.130;8.378;2022-11-24T03:01:51;6.43;;;1.90;;
52248;SDS011;38541;48.130;8.378;2022-11-24T03:04:18;5.00;;;1.80;;
52248;SDS011;38541;48.130;8.378;2022-11-24T03:06:44;6.13;;;2.03;;
52248;SDS011;38541;48.130;8.378;2022-11-24T03:09:10;4.68;;;1.65;;
52248;SDS011;38541;48.130;8.378;2022-11-24T03:11:37;2.85;;;1.85;;
52248;SDS011;38541;48.130;8.378;2022-11-24T03:14:04;1.88;;;1.60;;
52248;SDS011;38541;48.130;8.378;2022-11-24T03:16:31;6.50;;;2.15;;
52248;SDS011;38541;48.130;8.378;2022-11-24T03:18:58;4.13;;;1.30;;
52248;SDS011;38541;48.130;8.378;2022-11-24T03:21:25;1.48;;;1.38;;
52248;SDS011;38541;48.130;8.378;2022-11-24T03:23:52;5.50;;;1.80;;
52248;SDS011;38541;48.130;8.378;2022-11-24T03:26:20;4.60;;;1.45;;
52248;SDS011;38541;48.130;8.378;2022-11-24T03:28:47;2.53;;;1.25;;
52248;SDS011;38541;48.130;8.378;2022-11-24T03:31:14;4.05;;;1.70;;
52248;SDS011;38541;48.130;8.378;2022-11-24T03:33:40;7.05;;;2.42;;
52248;SDS011;38541;48.130;8.378;2022-11-24T03:36:07;4.78;;;1.75;;
52248;SDS011;38541;48.130;8.378;2022-11-24T03:38:34;3.35;;;1.20;;
52248;SDS011;38541;48.130;8.378;2022-11-24T03:41:01;4.50;;;1.73;;
52248;SDS011;38541;48.130;8.378;2022-11-24T03:43:27;6.30;;;2.25;;
52248;SDS011;38541;48.130;8.378;2022-11-24T03:45:54;4.47;;;1.73;;
52248;SDS011;38541;48.130;8.378;2022-11-24T03:48:20;11.48;;;2.13;;
52248;SDS011;38541;48.130;8.378;2022-11-24T03:50:54;6.07;;;2.28;;
52248;SDS011;38541;48.130;8.378;2022-11-24T03:53:23;5.20;;;1.95;;
52248;SDS011;38541;48.130;8.378;2022-11-24T03:55:50;7.03;;;2.03;;
52248;SDS011;38541;48.130;8.378;2022-11-24T03:58:17;6.18;;;1.98;;
52248;SDS011;38541;48.130;8.378;2022-11-24T04:00:44;7.22;;;2.30;;
52248;SDS011;38541;48.130;8.378;2022-11-24T04:03:14;5.78;;;1.90;;
52248;SDS011;38541;48.130;8.378;2022-11-24T04:05:41;6.03;;;1.90;;
52248;SDS011;38541;48.130;8.378;2022-11-24T04:08:07;10.40;;;2.70;;
52248;SDS011;38541;48.130;8.378;2022-11-24T04:10:35;4.68;;;2.15;;
52248;SDS011;38541;48.130;8.378;2022-11-24T04:13:03;3.42;;;1.70;;
52248;SDS011;38541;48.130;8.378;2022-11-24T04:15:36;3.28;;;1.83;;
52248;SDS011;38541;48.130;8.378;2022-11-24T04:18:05;7.00;;;2.30;;
52248;SDS011;38541;48.130;8.378;2022-11-24T04:20:33;3.63;;;1.77;;
52248;SDS011;38541;48.130;8.378;2022-11-24T04:22:59;7.55;;;1.85;;
52248;SDS011;38541;48.130;8.378;2022-11-24T04:25:26;8.45;;;1.70;;
52248;SDS011;38541;48.130;8.378;2022-11-24T04:27:53;6.55;;;2.17;;
52248;SDS011;38541;48.130;8.378;2022-11-24T04:30:21;3.33;;;1.77;;
52248;SDS011;38541;48.130;8.378;2022-11-24T04:32:49;4.68;;;1.80;;
52248;SDS011;38541;48.130;8.378;2022-11-24T04:35:16;6.45;;;2.15;;
52248;SDS011;38541;48.130;8.378;2022-11-24T04:37:42;7.43;;;2.00;;
52248;SDS011;38541;48.130;8.378;2022-11-24T04:40:09;5.90;;;2.22;;
52248;SDS011;38541;48.130;8.378;2022-11-24T04:42:36;4.50;;;2.10;;
52248;SDS011;38541;48.130;8.378;2022-11-24T04:45:03;3.92;;;1.92;;
52248;SDS011;38541;48.130;8.378;2022-11-24T04:47:31;5.15;;;2.03;;
52248;SDS011;38541;48.130;8.378;2022-11-24T04:49:58;16.70;;;2.17;;
52248;SDS011;38541;48.130;8.378;2022-11-24T04:52:24;7.45;;;2.15;;
52248;SDS011;38541;48.130;8.378;2022-11-24T04:54:51;7.32;;;1.83;;
52248;SDS011;38541;48.130;8.378;2022-11-24T04:57:19;9.32;;;2.55;;
52248;SDS011;38541;48.130;8.378;2022-11-24T04:59:47;3.67;;;2.00;;
52248;SDS011;38541;48.130;8.378;2022-11-24T05:02:14;6.43;;;2.10;;
52248;SDS011;38541;48.130;8.378;2022-11-24T05:04:41;4.05;;;1.70;;
52248;SDS011;38541;48.130;8.378;2022-11-24T05:07:11;7.13;;;1.95;;
52248;SDS011;38541;48.130;8.378;2022-11-24T05:09:44;6.30;;;2.30;;
52248;SDS011;38541;48.130;8.378;2022-11-24T05:12:30;7.65;;;2.30;;
52248;SDS011;38541;48.130;8.378;2022-11-24T05:14:57;9.90;;;2.30;;
52248;SDS011;38541;48.130;8.378;2022-11-24T05:17:32;6.00;;;1.85;;
52248;SDS011;38541;48.130;8.378;2022-11-24T05:20:00;3.67;;;2.28;;
52248;SDS011;38541;48.130;8.378;2022-11-24T05:22:27;7.18;;;3.38;;
52248;SDS011;38541;48.130;8.378;2022-11-24T05:24:54;10.10;;;3.22;;
52248;SDS011;38541;48.130;8.378;2022-11-24T05:27:21;6.97;;;2.15;;
52248;SDS011;38541;48.130;8.378;2022-11-24T05:29:48;6.28;;;2.22;;
52248;SDS011;38541;48.130;8.378;2022-11-24T05:32:15;5.97;;;2.38;;
52248;SDS011;38541;48.130;8.378;2022-11-24T05:34:41;6.20;;;2.05;;
52248;SDS011;38541;48.130;8.378;2022-11-24T05:37:08;15.38;;;3.30;;
52248;SDS011;38541;48.130;8.378;2022-11-24T05:39:34;6.28;;;2.20;;
52248;SDS011;38541;48.130;8.378;2022-11-24T05:42:02;6.03;;;1.83;;
52248;SDS011;38541;48.130;8.378;2022-11-24T05:44:51;4.75;;;1.90;;
52248;SDS011;38541;48.130;8.378;2022-11-24T05:47:18;7.70;;;3.03;;
52248;SDS011;38541;48.130;8.378;2022-11-24T05:49:45;4.35;;;1.55;;
52248;SDS011;38541;48.130;8.378;2022-11-24T05:52:12;10.82;;;2.72;;
52248;SDS011;38541;48.130;8.378;2022-11-24T05:54:39;5.97;;;2.13;;
52248;SDS011;38541;48.130;8.378;2022-11-24T05:57:05;5.60;;;1.88;;
52248;SDS011;38541;48.130;8.378;2022-11-24T05:59:32;7.30;;;1.80;;
52248;SDS011;38541;48.130;8.378;2022-11-24T06:02:00;6.07;;;2.03;;
52248;SDS011;38541;48.130;8.378;2022-11-24T06:04:27;3.75;;;1.77;;
52248;SDS011;38541;48.130;8.378;2022-11-24T06:06:53;5.05;;;1.80;;
52248;SDS011;38541;48.130;8.378;2022-11-24T06:09:20;5.70;;;2.00;;
52248;SDS011;38541;48.130;8.378;2022-11-24T06:11:47;5.93;;;1.80;;
52248;SDS011;38541;48.130;8.378;2022-11-24T06:14:14;4.22;;;2.13;;
52248;SDS011;38541;48.130;8.378;2022-11-24T06:16:40;7.45;;;2.20;;
52248;SDS011;38541;48.130;8.378;2022-11-24T06:19:08;4.30;;;1.80;;
52248;SDS011;38541;48.130;8.378;2022-11-24T06:21:35;5.68;;;2.55;;
52248;SDS011;38541;48.130;8.378;2022-11-24T06:24:01;5.25;;;2.28;;
52248;SDS011;38541;48.130;8.378;2022-11-24T06:26:28;6.80;;;2.13;;
52248;SDS011;38541;48.130;8.378;2022-11-24T06:28:54;7.45;;;2.28;;
52248;SDS011;38541;48.130;8.378;2022-11-24T06:31:20;4.75;;;1.65;;
52248;SDS011;38541;48.130;8.378;2022-11-24T06:33:47;3.15;;;1.38;;
52248;SDS011;38541;48.130;8.378;2022-11-24T06:36:14;4.78;;;1.67;;
52248;SDS011;38541;48.130;8.378;2022-11-24T06:38:41;3.90;;;1.20;;
52248;SDS011;38541;48.130;8.378;2022-11-24T06:41:11;4.28;;;1.42;;
52248;SDS011;38541;48.130;8.378;2022-11-24T06:43:39;3.58;;;1.35;;
52248;SDS011;38541;48.130;8.378;2022-11-24T06:46:06;1.88;;;1.27;;
52248;SDS011;38541;48.130;8.378;2022-11-24T06:48:33;5.35;;;1.88;;
52248;SDS011;38541;48.130;8.378;2022-11-24T06:51:00;5.10;;;2.00;;
52248;SDS011;38541;48.130;8.378;2022-11-24T06:53:31;1.58;;;1.20;;
52248;SDS011;38541;48.130;8.378;2022-11-24T06:56:09;3.22;;;1.30;;
52248;SDS011;38541;48.130;8.378;2022-11-24T06:58:45;19.60;;;1.92;;
52248;SDS011;38541;48.130;8.378;2022-11-24T07:01:26;7.05;;;1.60;;
52248;SDS011;38541;48.130;8.378;2022-11-24T07:03:54;5.38;;;1.38;;
52248;SDS011;38541;48.130;8.378;2022-11-24T07:06:22;4.75;;;1.50;;
52248;SDS011;38541;48.130;8.378;2022-11-24T07:08:50;6.03;;;1.52;;
52248;SDS011;38541;48.130;8.378;2022-11-24T07:11:18;2.95;;;2.08;;
52248;SDS011;38541;48.130;8.378;2022-11-24T07:13:46;1.92;;;1.33;;
52248;SDS011;38541;48.130;8.378;2022-11-24T07:16:14;2.38;;;1.40;;
52248;SDS011;38541;48.130;8.378;2022-11-24T07:18:46;3.88;;;1.90;;
52248;SDS011;38541;48.130;8.378;2022-11-24T07:21:14;2.28;;;1.42;;
52248;SDS011;38541;48.130;8.378;2022-11-24T07:23:41;3.30;;;1.30;;
52248;SDS011;38541;48.130;8.378;2022-11-24T07:26:08;1.88;;;1.30;;
52248;SDS011;38541;48.130;8.378;2022-11-24T07:28:36;4.53;;;1.60;;
52248;SDS011;38541;48.130;8.378;2022-11-24T07:31:13;1.48;;;1.30;;
52248;SDS011;38541;48.130;8.378;2022-11-24T07:33:51;2.40;;;1.30;;
52248;SDS011;38541;48.130;8.378;2022-11-24T07:36:18;3.40;;;1.60;;
52248;SDS011;38541;48.130;8.378;2022-11-24T07:38:45;2.88;;;1.77;;
52248;SDS011;38541;48.130;8.378;2022-11-24T07:41:13;4.00;;;1.60;;
52248;SDS011;38541;48.130;8.378;2022-11-24T07:43:40;6.88;;;2.53;;
52248;SDS011;38541;48.130;8.378;2022-11-24T07:46:08;3.38;;;1.55;;
52248;SDS011;38541;48.130;8.378;2022-11-24T07:48:37;3.88;;;1.30;;
52248;SDS011;38541;48.130;8.378;2022-11-24T07:51:04;2.65;;;1.67;;
52248;SDS011;38541;48.130;8.378;2022-11-24T07:53:31;2.22;;;1.10;;
52248;SDS011;38541;48.130;8.378;2022-11-24T07:55:59;3.80;;;1.92;;
52248;SDS011;38541;48.130;8.378;2022-11-24T07:58:27;3.47;;;1.20;;
52248;SDS011;38541;48.130;8.378;2022-11-24T08:00:58;5.53;;;1.67;;
52248;SDS011;38541;48.130;8.378;2022-11-24T08:03:24;2.75;;;1.20;;
52248;SDS011;38541;48.130;8.378;2022-11-24T08:05:58;1.83;;;1.08;;
52248;SDS011;38541;48.130;8.378;2022-11-24T08:08:45;3.22;;;1.58;;
52248;SDS011;38541;48.130;8.378;2022-11-24T08:11:13;4.90;;;1.42;;
52248;SDS011;38541;48.130;8.378;2022-11-24T08:13:41;4.40;;;2.20;;
52248;SDS011;38541;48.130;8.378;2022-11-24T08:16:09;3.25;;;1.77;;
52248;SDS011;38541;48.130;8.378;2022-11-24T08:18:38;3.72;;;1.20;;
52248;SDS011;38541;48.130;8.378;2022-11-24T08:21:05;1.35;;;1.15;;
52248;SDS011;38541;48.130;8.378;2022-11-24T08:23:32;2.40;;;1.10;;
52248;SDS011;38541;48.130;8.378;2022-11-24T08:26:02;1.23;;;0.85;;
52248;SDS011;38541;48.130;8.378;2022-11-24T08:28:34;1.27;;;1.00;;
52248;SDS011;38541;48.130;8.378;2022-11-24T08:31:05;3.03;;;1.70;;
52248;SDS011;38541;48.130;8.378;2022-11-24T08:33:33;2.47;;;1.17;;
52248;SDS011;38541;48.130;8.378;2022-11-24T08:36:06;3.53;;;1.75;;
52248;SDS011;38541;48.130;8.378;2022-11-24T08:38:35;2.08;;;1.27;;
52248;SDS011;38541;48.130;8.378;2022-11-24T08:41:02;2.50;;;0.85;;
52248;SDS011;38541;48.130;8.378;2022-11-24T08:43:30;2.50;;;1.20;;
52248;SDS011;38541;48.130;8.378;2022-11-24T08:46:04;1.27;;;1.00;;
52248;SDS011;38541;48.130;8.378;2022-11-24T08:48:32;2.80;;;1.00;;
52248;SDS011;38541;48.130;8.378;2022-11-24T08:51:04;1.42;;;0.90;;
52248;SDS011;38541;48.130;8.378;2022-11-24T08:53:32;3.20;;;1.60;;
52248;SDS011;38541;48.130;8.378;2022-11-24T08:55:59;2.60;;;1.08;;
52248;SDS011;38541;48.130;8.378;2022-11-24T08:58:27;1.45;;;1.33;;
52248;SDS011;38541;48.130;8.378;2022-11-24T09:00:54;2.88;;;2.00;;
52248;SDS011;38541;48.130;8.378;2022-11-24T09:03:21;2.97;;;1.30;;
52248;SDS011;38541;48.130;8.378;2022-11-24T09:05:47;2.38;;;1.50;;
52248;SDS011;38541;48.130;8.378;2022-11-24T09:08:18;1.92;;;1.10;;
52248;SDS011;38541;48.130;8.378;2022-11-24T09:10:44;2.10;;;1.20;;
52248;SDS011;38541;48.130;8.378;2022-11-24T09:13:11;1.10;;;1.02;;
52248;SDS011;38541;48.130;8.378;2022-11-24T09:15:38;2.80;;;1.48;;
52248;SDS011;38541;48.130;8.378;2022-11-24T09:18:04;3.53;;;1.80;;
52248;SDS011;38541;48.130;8.378;2022-11-24T09:20:31;1.88;;;1.55;;
52248;SDS011;38541;48.130;8.378;2022-11-24T09:22:57;4.07;;;1.48;;
52248;SDS011;38541;48.130;8.378;2022-11-24T09:25:24;3.17;;;1.70;;
52248;SDS011;38541;48.130;8.378;2022-11-24T09:27:50;2.95;;;1.30;;
52248;SDS011;38541;48.130;8.378;2022-11-24T09:30:16;4.00;;;1.90;;
52248;SDS011;38541;48.130;8.378;2022-11-24T09:32:43;4.45;;;1.50;;
52248;SDS011;38541;48.130;8.378;2022-11-24T09:35:09;3.42;;;1.67;;
52248;SDS011;38541;48.130;8.378;2022-11-24T09:37:36;1.92;;;1.35;;
52248;SDS011;38541;48.130;8.378;2022-11-24T09:40:02;2.75;;;1.45;;
52248;SDS011;38541;48.130;8.378;2022-11-24T09:48:32;3.63;;;1.88;;
52248;SDS011;38541;48.130;8.378;2022-11-24T09:51:04;3.03;;;1.13;;
52248;SDS011;38541;48.130;8.378;2022-11-24T09:56:30;3.30;;;1.50;;
52248;SDS011;38541;48.130;8.378;2022-11-24T09:59:00;3.05;;;1.60;;
52248;SDS011;38541;48.130;8.378;2022-11-24T10:01:32;2.95;;;1.25;;
52248;SDS011;38541;48.130;8.378;2022-11-24T10:04:02;3.00;;;1.40;;
52248;SDS011;38541;48.130;8.378;2022-11-24T10:09:55;2.47;;;1.30;;
52248;SDS011;38541;48.130;8.378;2022-11-24T10:12:37;3.45;;;1.20;;
52248;SDS011;38541;48.130;8.378;2022-11-24T10:18:13;1.88;;;1.60;;
52248;SDS011;38541;48.130;8.378;2022-11-24T10:23:35;1.60;;;1.10;;
52248;SDS011;38541;48.130;8.378;2022-11-24T10:29:22;3.05;;;2.33;;
52248;SDS011;38541;48.130;8.378;2022-11-24T10:31:54;4.68;;;1.33;;
52248;SDS011;38541;48.130;8.378;2022-11-24T10:34:28;2.60;;;1.67;;
52248;SDS011;38541;48.130;8.378;2022-11-24T10:37:11;2.17;;;1.10;;
52248;SDS011;38541;48.130;8.378;2022-11-24T10:39:50;2.63;;;1.20;;
52248;SDS011;38541;48.130;8.378;2022-11-24T10:42:57;2.30;;;1.23;;
52248;SDS011;38541;48.130;8.378;2022-11-24T10:45:24;4.40;;;1.17;;
52248;SDS011;38541;48.130;8.378;2022-11-24T10:47:52;5.53;;;1.60;;
52248;SDS011;38541;48.130;8.378;2022-11-24T10:58:22;3.15;;;1.30;;
52248;SDS011;38541;48.130;8.378;2022-11-24T11:00:49;4.93;;;1.70;;
52248;SDS011;38541;48.130;8.378;2022-11-24T11:03:16;2.20;;;1.48;;
52248;SDS011;38541;48.130;8.378;2022-11-24T11:05:47;1.85;;;1.55;;
52248;SDS011;38541;48.130;8.378;2022-11-24T11:08:23;3.75;;;1.15;;
52248;SDS011;38541;48.130;8.378;2022-11-24T11:19:54;6.32;;;1.70;;
52248;SDS011;38541;48.130;8.378;2022-11-24T11:22:27;2.55;;;1.40;;
52248;SDS011;38541;48.130;8.378;2022-11-24T11:25:39;2.25;;;1.15;;
52248;SDS011;38541;48.130;8.378;2022-11-24T11:27:47;6.00;;;1.40;;
52248;SDS011;38541;48.130;8.378;2022-11-24T11:30:18;2.78;;;1.50;;
52248;SDS011;38541;48.130;8.378;2022-11-24T11:33:21;1.90;;;1.17;;
52248;SDS011;38541;48.130;8.378;2022-11-24T11:36:09;3.63;;;1.70;;
52248;SDS011;38541;48.130;8.378;2022-11-24T11:38:37;3.38;;;1.63;;
52248;SDS011;38541;48.130;8.378;2022-11-24T11:41:04;2.90;;;1.30;;
52248;SDS011;38541;48.130;8.378;2022-11-24T11:43:38;2.78;;;1.48;;
52248;SDS011;38541;48.130;8.378;2022-11-24T11:46:12;1.25;;;1.00;;
52248;SDS011;38541;48.130;8.378;2022-11-24T11:48:43;3.58;;;1.65;;
52248;SDS011;38541;48.130;8.378;2022-11-24T11:56:29;2.70;;;1.13;;
52248;SDS011;38541;48.130;8.378;2022-11-24T12:04:42;2.65;;;1.25;;
52248;SDS011;38541;48.130;8.378;2022-11-24T12:10:02;1.55;;;1.20;;
52248;SDS011;38541;48.130;8.378;2022-11-24T12:15:21;1.50;;;1.13;;
52248;SDS011;38541;48.130;8.378;2022-11-24T12:27:04;3.05;;;1.50;;
52248;SDS011;38541;48.130;8.378;2022-11-24T12:35:40;3.58;;;1.48;;
52248;SDS011;38541;48.130;8.378;2022-11-24T12:41:23;5.33;;;1.40;;
52248;SDS011;38541;48.130;8.378;2022-11-24T12:44:26;3.17;;;1.63;;
52248;SDS011;38541;48.130;8.378;2022-11-24T12:47:10;2.25;;;1.27;;
52248;SDS011;38541;48.130;8.378;2022-11-24T12:54:53;4.00;;;1.73;;
52248;SDS011;38541;48.130;8.378;2022-11-24T12:57:25;3.47;;;1.48;;
52248;SDS011;38541;48.130;8.378;2022-11-24T13:02:41;4.03;;;1.70;;
52248;SDS011;38541;48.130;8.378;2022-11-24T13:05:32;3.20;;;1.50;;
52248;SDS011;38541;48.130;8.378;2022-11-24T13:08:08;1.92;;;1.20;;
52248;SDS011;38541;48.130;8.378;2022-11-24T13:10:35;3.50;;;0.88;;
52248;SDS011;38541;48.130;8.378;2022-11-24T13:13:22;1.27;;;1.10;;
52248;SDS011;38541;48.130;8.378;2022-11-24T13:26:45;2.65;;;1.23;;
52248;SDS011;38541;48.130;8.378;2022-11-24T13:40:02;4.07;;;1.17;;
52248;SDS011;38541;48.130;8.378;2022-11-24T13:53:35;2.95;;;1.35;;
52248;SDS011;38541;48.130;8.378;2022-11-24T13:56:19;1.45;;;1.27;;
52248;SDS011;38541;48.130;8.378;2022-11-24T14:03:58;3.30;;;1.15;;
52248;SDS011;38541;48.130;8.378;2022-11-24T14:06:46;2.75;;;1.15;;
52248;SDS011;38541;48.130;8.378;2022-11-24T14:09:35;1.80;;;1.27;;
52248;SDS011;38541;48.130;8.378;2022-11-24T14:12:14;4.78;;;0.98;;
52248;SDS011;38541;48.130;8.378;2022-11-24T14:14:46;2.67;;;1.13;;
52248;SDS011;38541;48.130;8.378;2022-11-24T14:19:43;2.63;;;1.42;;
52248;SDS011;38541;48.130;8.378;2022-11-24T14:22:19;3.40;;;1.48;;
52248;SDS011;38541;48.130;8.378;2022-11-24T14:24:51;1.92;;;1.17;;
52248;SDS011;38541;48.130;8.378;2022-11-24T14:27:22;2.55;;;1.20;;
52248;SDS011;38541;48.130;8.378;2022-11-24T14:32:51;2.63;;;1.40;;
52248;SDS011;38541;48.130;8.378;2022-11-24T14:35:26;2.63;;;1.48;;
52248;SDS011;38541;48.130;8.378;2022-11-24T14:37:57;2.58;;;1.20;;
52248;SDS011;38541;48.130;8.378;2022-11-24T14:43:32;3.75;;;1.20;;
52248;SDS011;38541;48.130;8.378;2022-11-24T14:46:02;2.55;;;1.40;;
52248;SDS011;38541;48.130;8.378;2022-11-24T14:48:36;2.47;;;1.63;;
52248;SDS011;38541;48.130;8.378;2022-11-24T14:51:13;2.72;;;1.10;;
52248;SDS011;38541;48.130;8.378;2022-11-24T14:53:43;3.45;;;1.30;;
52248;SDS011;38541;48.130;8.378;2022-11-24T14:58:59;3.00;;;1.40;;
52248;SDS011;38541;48.130;8.378;2022-11-24T15:12:32;4.65;;;1.80;;
52248;SDS011;38541;48.130;8.378;2022-11-24T15:15:03;2.28;;;1.58;;
52248;SDS011;38541;48.130;8.378;2022-11-24T15:17:48;4.82;;;1.20;;
52248;SDS011;38541;48.130;8.378;2022-11-24T15:20:25;1.67;;;1.40;;
52248;SDS011;38541;48.130;8.378;2022-11-24T15:25:51;1.65;;;1.20;;
52248;SDS011;38541;48.130;8.378;2022-11-24T15:28:19;2.55;;;1.15;;
52248;SDS011;38541;48.130;8.378;2022-11-24T15:31:09;4.53;;;1.23;;
52248;SDS011;38541;48.130;8.378;2022-11-24T15:33:38;1.98;;;1.50;;
52248;SDS011;38541;48.130;8.378;2022-11-24T15:36:06;3.03;;;1.40;;
52248;SDS011;38541;48.130;8.378;2022-11-24T15:38:32;2.75;;;1.50;;
52248;SDS011;38541;48.130;8.378;2022-11-24T15:40:59;2.25;;;1.50;;
52248;SDS011;38541;48.130;8.378;2022-11-24T15:43:30;2.38;;;1.27;;
52248;SDS011;38541;48.130;8.378;2022-11-24T15:46:00;4.03;;;1.45;;
52248;SDS011;38541;48.130;8.378;2022-11-24T15:48:27;1.80;;;1.38;;
52248;SDS011;38541;48.130;8.378;2022-11-24T15:50:55;2.13;;;1.02;;
52248;SDS011;38541;48.130;8.378;2022-11-24T15:53:23;2.65;;;1.27;;
52248;SDS011;38541;48.130;8.378;2022-11-24T15:55:55;2.17;;;1.38;;
52248;SDS011;38541;48.130;8.378;2022-11-24T15:58:22;2.55;;;1.60;;
52248;SDS011;38541;48.130;8.378;2022-11-24T16:00:49;3.47;;;1.70;;
52248;SDS011;38541;48.130;8.378;2022-11-24T16:03:19;3.40;;;1.65;;
52248;SDS011;38541;48.130;8.378;2022-11-24T16:06:07;3.45;;;1.50;;
52248;SDS011;38541;48.130;8.378;2022-11-24T16:08:43;4.90;;;1.92;;
52248;SDS011;38541;48.130;8.378;2022-11-24T16:11:10;4.65;;;2.15;;
52248;SDS011;38541;48.130;8.378;2022-11-24T16:13:36;2.17;;;1.90;;
52248;SDS011;38541;48.130;8.378;2022-11-24T16:16:03;2.33;;;1.52;;
52248;SDS011;38541;48.130;8.378;2022-11-24T16:18:30;3.95;;;2.08;;
52248;SDS011;38541;48.130;8.378;2022-11-24T16:21:00;2.70;;;2.15;;
52248;SDS011;38541;48.130;8.378;2022-11-24T16:23:27;2.53;;;1.80;;
52248;SDS011;38541;48.130;8.378;2022-11-24T16:25:53;2.55;;;1.80;;
52248;SDS011;38541;48.130;8.378;2022-11-24T16:28:20;3.13;;;1.67;;
52248;SDS011;38541;48.130;8.378;2022-11-24T16:30:47;1.80;;;1.42;;
52248;SDS011;38541;48.130;8.378;2022-11-24T16:33:15;6.72;;;1.80;;
52248;SDS011;38541;48.130;8.378;2022-11-24T16:35:41;2.80;;;1.52;;
52248;SDS011;38541;48.130;8.378;2022-11-24T16:38:15;2.10;;;1.83;;
52248;SDS011;38541;48.130;8.378;2022-11-24T16:40:42;4.78;;;1.90;;
52248;SDS011;38541;48.130;8.378;2022-11-24T16:43:09;3.47;;;1.73;;
52248;SDS011;38541;48.130;8.378;2022-11-24T16:45:35;3.00;;;1.40;;
52248;SDS011;38541;48.130;8.378;2022-11-24T16:48:09;4.32;;;2.45;;
52248;SDS011;38541;48.130;8.378;2022-11-24T16:50:36;2.45;;;1.92;;
52248;SDS011;38541;48.130;8.378;2022-11-24T16:53:02;2.55;;;1.67;;
52248;SDS011;38541;48.130;8.378;2022-11-24T16:55:29;3.35;;;2.00;;
52248;SDS011;38541;48.130;8.378;2022-11-24T16:57:55;3.28;;;2.10;;
52248;SDS011;38541;48.130;8.378;2022-11-24T17:00:22;3.80;;;2.30;;
52248;SDS011;38541;48.130;8.378;2022-11-24T17:02:48;2.88;;;2.35;;
52248;SDS011;38541;48.130;8.378;2022-11-24T17:05:15;4.90;;;2.92;;
52248;SDS011;38541;48.130;8.378;2022-11-24T17:07:42;4.68;;;3.50;;
52248;SDS011;38541;48.130;8.378;2022-11-24T17:10:08;7.05;;;2.83;;
52248;SDS011;38541;48.130;8.378;2022-11-24T17:12:35;3.42;;;2.40;;
52248;SDS011;38541;48.130;8.378;2022-11-24T17:15:03;7.65;;;2.13;;
52248;SDS011;38541;48.130;8.378;2022-11-24T17:17:50;4.60;;;2.60;;
52248;SDS011;38541;48.130;8.378;2022-11-24T17:20:37;3.35;;;1.77;;
52248;SDS011;38541;48.130;8.378;2022-11-24T17:23:03;7.03;;;2.58;;
52248;SDS011;38541;48.130;8.378;2022-11-24T17:25:30;4.97;;;3.30;;
52248;SDS011;38541;48.130;8.378;2022-11-24T17:27:57;4.28;;;3.13;;
52248;SDS011;38541;48.130;8.378;2022-11-24T17:30:23;4.05;;;2.45;;
52248;SDS011;38541;48.130;8.378;2022-11-24T17:32:50;2.38;;;2.17;;
52248;SDS011;38541;48.130;8.378;2022-11-24T17:35:22;3.10;;;2.00;;
52248;SDS011;38541;48.130;8.378;2022-11-24T17:37:48;3.40;;;2.10;;